sensor_id;sensor_type;location;lat;lon;timestamp;P1;durP1;ratioP1;P2;durP2;ratioP2
64225;SDS011;50545;56.064;26.178;2023-06-22T00:00:03;6.45;;;4.85;;
64225;SDS011;50545;56.064;26.178;2023-06-22T00:02:38;6.65;;;4.82;;
64225;SDS011;50545;56.064;26.178;2023-06-22T00:05:06;6.53;;;4.78;;
64225;SDS011;50545;56.064;26.178;2023-06-22T00:07:33;6.85;;;4.90;;
64225;SDS011;50545;56.064;26.178;2023-06-22T00:10:01;7.68;;;5.07;;
64225;SDS011;50545;56.064;26.178;2023-06-22T00:12:28;9.32;;;4.93;;
64225;SDS011;50545;56.064;26.178;2023-06-22T00:14:55;8.20;;;5.05;;
64225;SDS011;50545;56.064;26.178;2023-06-22T00:17:22;6.43;;;4.88;;
64225;SDS011;50545;56.064;26.178;2023-06-22T00:19:50;7.00;;;4.82;;
64225;SDS011;50545;56.064;26.178;2023-06-22T00:22:20;7.32;;;5.30;;
64225;SDS011;50545;56.064;26.178;2023-06-22T00:24:55;8.75;;;4.97;;
64225;SDS011;50545;56.064;26.178;2023-06-22T00:27:23;6.72;;;4.82;;
64225;SDS011;50545;56.064;26.178;2023-06-22T00:29:50;7.95;;;5.05;;
64225;SDS011;50545;56.064;26.178;2023-06-22T00:32:18;5.97;;;4.63;;
64225;SDS011;50545;56.064;26.178;2023-06-22T00:34:45;8.15;;;5.43;;
64225;SDS011;50545;56.064;26.178;2023-06-22T00:37:12;7.28;;;5.13;;
64225;SDS011;50545;56.064;26.178;2023-06-22T00:39:40;6.68;;;5.18;;
64225;SDS011;50545;56.064;26.178;2023-06-22T00:42:07;7.47;;;5.15;;
64225;SDS011;50545;56.064;26.178;2023-06-22T00:44:37;9.02;;;5.72;;
64225;SDS011;50545;56.064;26.178;2023-06-22T00:47:04;8.40;;;5.03;;
64225;SDS011;50545;56.064;26.178;2023-06-22T00:49:33;8.50;;;5.57;;
64225;SDS011;50545;56.064;26.178;2023-06-22T00:52:01;7.78;;;5.55;;
64225;SDS011;50545;56.064;26.178;2023-06-22T00:54:29;8.20;;;5.38;;
64225;SDS011;50545;56.064;26.178;2023-06-22T00:56:57;8.07;;;5.45;;
64225;SDS011;50545;56.064;26.178;2023-06-22T00:59:24;7.65;;;5.40;;
64225;SDS011;50545;56.064;26.178;2023-06-22T01:01:54;8.10;;;5.63;;
64225;SDS011;50545;56.064;26.178;2023-06-22T01:04:24;6.50;;;5.07;;
64225;SDS011;50545;56.064;26.178;2023-06-22T01:12:52;6.55;;;4.78;;
64225;SDS011;50545;56.064;26.178;2023-06-22T01:15:39;6.28;;;5.03;;
64225;SDS011;50545;56.064;26.178;2023-06-22T01:18:12;9.02;;;4.85;;
64225;SDS011;50545;56.064;26.178;2023-06-22T01:20:41;7.40;;;5.38;;
64225;SDS011;50545;56.064;26.178;2023-06-22T01:23:29;6.97;;;4.85;;
64225;SDS011;50545;56.064;26.178;2023-06-22T01:28:46;6.47;;;4.65;;
64225;SDS011;50545;56.064;26.178;2023-06-22T01:31:16;5.85;;;4.35;;
64225;SDS011;50545;56.064;26.178;2023-06-22T01:33:48;6.68;;;4.47;;
64225;SDS011;50545;56.064;26.178;2023-06-22T01:36:20;5.25;;;4.07;;
64225;SDS011;50545;56.064;26.178;2023-06-22T01:38:48;6.03;;;4.38;;
64225;SDS011;50545;56.064;26.178;2023-06-22T01:41:17;6.57;;;4.43;;
64225;SDS011;50545;56.064;26.178;2023-06-22T01:43:44;6.10;;;4.28;;
64225;SDS011;50545;56.064;26.178;2023-06-22T01:46:12;5.97;;;4.25;;
64225;SDS011;50545;56.064;26.178;2023-06-22T01:48:40;6.55;;;4.45;;
64225;SDS011;50545;56.064;26.178;2023-06-22T01:51:07;6.18;;;4.50;;
64225;SDS011;50545;56.064;26.178;2023-06-22T01:53:35;5.20;;;3.90;;
64225;SDS011;50545;56.064;26.178;2023-06-22T01:56:02;6.03;;;4.05;;
64225;SDS011;50545;56.064;26.178;2023-06-22T01:58:30;5.72;;;4.07;;
64225;SDS011;50545;56.064;26.178;2023-06-22T02:01:11;5.80;;;3.92;;
64225;SDS011;50545;56.064;26.178;2023-06-22T02:04:03;5.35;;;3.67;;
64225;SDS011;50545;56.064;26.178;2023-06-22T02:06:36;5.35;;;3.78;;
64225;SDS011;50545;56.064;26.178;2023-06-22T02:09:07;5.60;;;3.78;;
64225;SDS011;50545;56.064;26.178;2023-06-22T02:11:38;5.55;;;4.10;;
64225;SDS011;50545;56.064;26.178;2023-06-22T02:14:09;5.32;;;3.88;;
64225;SDS011;50545;56.064;26.178;2023-06-22T02:16:37;5.80;;;4.03;;
64225;SDS011;50545;56.064;26.178;2023-06-22T02:19:05;5.82;;;4.07;;
64225;SDS011;50545;56.064;26.178;2023-06-22T02:21:32;6.40;;;4.28;;
64225;SDS011;50545;56.064;26.178;2023-06-22T02:24:00;5.90;;;4.25;;
64225;SDS011;50545;56.064;26.178;2023-06-22T02:26:27;5.63;;;4.07;;
64225;SDS011;50545;56.064;26.178;2023-06-22T02:28:55;6.47;;;4.18;;
64225;SDS011;50545;56.064;26.178;2023-06-22T02:31:22;6.97;;;3.95;;
64225;SDS011;50545;56.064;26.178;2023-06-22T02:34:00;6.75;;;4.90;;
64225;SDS011;50545;56.064;26.178;2023-06-22T02:36:27;5.30;;;4.15;;
64225;SDS011;50545;56.064;26.178;2023-06-22T02:38:57;8.02;;;4.30;;
64225;SDS011;50545;56.064;26.178;2023-06-22T02:41:28;6.45;;;4.60;;
64225;SDS011;50545;56.064;26.178;2023-06-22T02:43:55;6.13;;;4.13;;
64225;SDS011;50545;56.064;26.178;2023-06-22T02:46:22;6.70;;;4.40;;
64225;SDS011;50545;56.064;26.178;2023-06-22T02:48:49;5.05;;;3.78;;
64225;SDS011;50545;56.064;26.178;2023-06-22T02:51:17;8.00;;;4.45;;
64225;SDS011;50545;56.064;26.178;2023-06-22T02:53:44;5.97;;;4.22;;
64225;SDS011;50545;56.064;26.178;2023-06-22T02:56:12;6.10;;;4.07;;
64225;SDS011;50545;56.064;26.178;2023-06-22T02:58:39;6.65;;;4.40;;
64225;SDS011;50545;56.064;26.178;2023-06-22T03:01:06;7.28;;;4.57;;
64225;SDS011;50545;56.064;26.178;2023-06-22T03:03:34;6.35;;;4.22;;
64225;SDS011;50545;56.064;26.178;2023-06-22T03:06:01;7.47;;;4.55;;
64225;SDS011;50545;56.064;26.178;2023-06-22T03:08:29;6.05;;;4.53;;
64225;SDS011;50545;56.064;26.178;2023-06-22T03:10:56;6.18;;;4.40;;
64225;SDS011;50545;56.064;26.178;2023-06-22T03:13:23;7.93;;;4.72;;
64225;SDS011;50545;56.064;26.178;2023-06-22T03:15:51;7.25;;;4.90;;
64225;SDS011;50545;56.064;26.178;2023-06-22T03:18:19;7.60;;;5.05;;
64225;SDS011;50545;56.064;26.178;2023-06-22T03:20:49;7.70;;;5.03;;
64225;SDS011;50545;56.064;26.178;2023-06-22T03:23:16;7.72;;;5.18;;
64225;SDS011;50545;56.064;26.178;2023-06-22T03:25:43;7.00;;;5.13;;
64225;SDS011;50545;56.064;26.178;2023-06-22T03:28:13;7.53;;;5.32;;
64225;SDS011;50545;56.064;26.178;2023-06-22T03:30:41;7.75;;;5.38;;
64225;SDS011;50545;56.064;26.178;2023-06-22T03:33:08;7.32;;;5.20;;
64225;SDS011;50545;56.064;26.178;2023-06-22T03:35:35;6.82;;;5.07;;
64225;SDS011;50545;56.064;26.178;2023-06-22T03:38:02;7.30;;;4.93;;
64225;SDS011;50545;56.064;26.178;2023-06-22T03:40:29;6.43;;;4.65;;
64225;SDS011;50545;56.064;26.178;2023-06-22T03:42:57;6.53;;;4.70;;
64225;SDS011;50545;56.064;26.178;2023-06-22T03:45:24;6.38;;;4.68;;
64225;SDS011;50545;56.064;26.178;2023-06-22T03:47:52;6.65;;;4.55;;
64225;SDS011;50545;56.064;26.178;2023-06-22T03:50:20;8.15;;;5.28;;
64225;SDS011;50545;56.064;26.178;2023-06-22T03:52:47;5.80;;;4.32;;
64225;SDS011;50545;56.064;26.178;2023-06-22T03:55:15;7.13;;;4.90;;
64225;SDS011;50545;56.064;26.178;2023-06-22T03:57:42;6.32;;;4.68;;
64225;SDS011;50545;56.064;26.178;2023-06-22T04:00:10;6.95;;;5.05;;
64225;SDS011;50545;56.064;26.178;2023-06-22T04:02:37;7.40;;;4.93;;
64225;SDS011;50545;56.064;26.178;2023-06-22T04:05:05;5.75;;;4.28;;
64225;SDS011;50545;56.064;26.178;2023-06-22T04:07:33;6.55;;;4.93;;
64225;SDS011;50545;56.064;26.178;2023-06-22T04:10:00;6.68;;;4.55;;
64225;SDS011;50545;56.064;26.178;2023-06-22T04:12:27;7.15;;;5.00;;
64225;SDS011;50545;56.064;26.178;2023-06-22T04:14:55;7.05;;;4.72;;
64225;SDS011;50545;56.064;26.178;2023-06-22T04:17:22;7.30;;;5.15;;
64225;SDS011;50545;56.064;26.178;2023-06-22T04:19:51;7.63;;;5.05;;
64225;SDS011;50545;56.064;26.178;2023-06-22T04:22:19;8.15;;;5.15;;
64225;SDS011;50545;56.064;26.178;2023-06-22T04:24:46;6.20;;;4.68;;
64225;SDS011;50545;56.064;26.178;2023-06-22T04:27:14;7.82;;;5.40;;
64225;SDS011;50545;56.064;26.178;2023-06-22T04:29:41;6.80;;;5.22;;
64225;SDS011;50545;56.064;26.178;2023-06-22T04:32:15;8.48;;;4.88;;
64225;SDS011;50545;56.064;26.178;2023-06-22T04:34:43;7.47;;;5.32;;
64225;SDS011;50545;56.064;26.178;2023-06-22T04:37:10;6.88;;;5.03;;
64225;SDS011;50545;56.064;26.178;2023-06-22T04:39:42;7.85;;;5.55;;
64225;SDS011;50545;56.064;26.178;2023-06-22T04:42:10;7.97;;;5.55;;
64225;SDS011;50545;56.064;26.178;2023-06-22T04:44:38;7.30;;;5.45;;
64225;SDS011;50545;56.064;26.178;2023-06-22T04:47:08;7.97;;;5.72;;
64225;SDS011;50545;56.064;26.178;2023-06-22T04:49:35;7.93;;;5.50;;
64225;SDS011;50545;56.064;26.178;2023-06-22T04:52:04;9.45;;;5.97;;
64225;SDS011;50545;56.064;26.178;2023-06-22T04:54:37;8.32;;;6.00;;
64225;SDS011;50545;56.064;26.178;2023-06-22T04:57:06;9.10;;;6.28;;
64225;SDS011;50545;56.064;26.178;2023-06-22T04:59:37;8.35;;;6.18;;
64225;SDS011;50545;56.064;26.178;2023-06-22T05:02:08;8.77;;;6.13;;
64225;SDS011;50545;56.064;26.178;2023-06-22T05:04:36;8.02;;;6.22;;
64225;SDS011;50545;56.064;26.178;2023-06-22T05:07:06;7.68;;;5.90;;
64225;SDS011;50545;56.064;26.178;2023-06-22T05:09:33;7.85;;;5.68;;
64225;SDS011;50545;56.064;26.178;2023-06-22T05:12:01;7.55;;;6.03;;
64225;SDS011;50545;56.064;26.178;2023-06-22T05:14:29;7.85;;;5.72;;
64225;SDS011;50545;56.064;26.178;2023-06-22T05:16:57;8.35;;;5.85;;
64225;SDS011;50545;56.064;26.178;2023-06-22T05:19:30;8.43;;;6.35;;
64225;SDS011;50545;56.064;26.178;2023-06-22T05:22:02;8.02;;;6.30;;
64225;SDS011;50545;56.064;26.178;2023-06-22T05:24:29;8.68;;;6.13;;
64225;SDS011;50545;56.064;26.178;2023-06-22T05:26:56;7.70;;;6.10;;
64225;SDS011;50545;56.064;26.178;2023-06-22T05:29:24;7.43;;;5.72;;
64225;SDS011;50545;56.064;26.178;2023-06-22T05:31:51;8.50;;;6.20;;
64225;SDS011;50545;56.064;26.178;2023-06-22T05:34:18;8.77;;;6.55;;
64225;SDS011;50545;56.064;26.178;2023-06-22T05:36:45;7.90;;;6.00;;
64225;SDS011;50545;56.064;26.178;2023-06-22T05:39:13;8.50;;;5.93;;
64225;SDS011;50545;56.064;26.178;2023-06-22T05:41:42;8.48;;;5.95;;
64225;SDS011;50545;56.064;26.178;2023-06-22T05:44:10;8.85;;;6.63;;
64225;SDS011;50545;56.064;26.178;2023-06-22T05:46:40;7.82;;;5.85;;
64225;SDS011;50545;56.064;26.178;2023-06-22T05:49:13;8.63;;;6.70;;
64225;SDS011;50545;56.064;26.178;2023-06-22T05:51:41;9.07;;;6.10;;
64225;SDS011;50545;56.064;26.178;2023-06-22T05:54:08;8.60;;;6.40;;
64225;SDS011;50545;56.064;26.178;2023-06-22T05:56:36;8.48;;;6.50;;
64225;SDS011;50545;56.064;26.178;2023-06-22T05:59:03;10.63;;;6.60;;
64225;SDS011;50545;56.064;26.178;2023-06-22T06:01:31;9.35;;;7.20;;
64225;SDS011;50545;56.064;26.178;2023-06-22T06:04:02;8.40;;;6.78;;
64225;SDS011;50545;56.064;26.178;2023-06-22T06:06:30;11.40;;;7.30;;
64225;SDS011;50545;56.064;26.178;2023-06-22T06:08:58;10.68;;;7.18;;
64225;SDS011;50545;56.064;26.178;2023-06-22T06:11:26;8.88;;;7.15;;
64225;SDS011;50545;56.064;26.178;2023-06-22T06:13:53;8.68;;;6.85;;
64225;SDS011;50545;56.064;26.178;2023-06-22T06:16:21;9.63;;;7.93;;
64225;SDS011;50545;56.064;26.178;2023-06-22T06:18:49;8.70;;;7.10;;
64225;SDS011;50545;56.064;26.178;2023-06-22T06:21:17;9.90;;;7.45;;
64225;SDS011;50545;56.064;26.178;2023-06-22T06:23:44;9.52;;;6.40;;
64225;SDS011;50545;56.064;26.178;2023-06-22T06:26:11;8.80;;;7.00;;
64225;SDS011;50545;56.064;26.178;2023-06-22T06:28:39;9.85;;;6.93;;
64225;SDS011;50545;56.064;26.178;2023-06-22T06:31:07;9.13;;;7.45;;
64225;SDS011;50545;56.064;26.178;2023-06-22T06:33:35;8.73;;;6.55;;
64225;SDS011;50545;56.064;26.178;2023-06-22T06:36:03;9.45;;;7.32;;
64225;SDS011;50545;56.064;26.178;2023-06-22T06:38:30;9.48;;;6.82;;
64225;SDS011;50545;56.064;26.178;2023-06-22T06:40:58;9.05;;;6.75;;
64225;SDS011;50545;56.064;26.178;2023-06-22T06:43:26;8.65;;;6.60;;
64225;SDS011;50545;56.064;26.178;2023-06-22T06:45:53;9.32;;;7.45;;
64225;SDS011;50545;56.064;26.178;2023-06-22T06:48:20;8.10;;;6.57;;
64225;SDS011;50545;56.064;26.178;2023-06-22T06:50:48;9.90;;;7.28;;
64225;SDS011;50545;56.064;26.178;2023-06-22T06:53:15;9.07;;;6.60;;
64225;SDS011;50545;56.064;26.178;2023-06-22T06:55:42;13.52;;;8.63;;
64225;SDS011;50545;56.064;26.178;2023-06-22T06:58:12;9.13;;;6.93;;
64225;SDS011;50545;56.064;26.178;2023-06-22T07:00:39;9.43;;;7.65;;
64225;SDS011;50545;56.064;26.178;2023-06-22T07:03:06;10.73;;;7.53;;
64225;SDS011;50545;56.064;26.178;2023-06-22T07:05:35;12.68;;;7.70;;
64225;SDS011;50545;56.064;26.178;2023-06-22T07:08:02;10.02;;;7.78;;
64225;SDS011;50545;56.064;26.178;2023-06-22T07:10:29;11.52;;;7.82;;
64225;SDS011;50545;56.064;26.178;2023-06-22T07:12:57;10.02;;;7.15;;
64225;SDS011;50545;56.064;26.178;2023-06-22T07:15:24;9.25;;;6.30;;
64225;SDS011;50545;56.064;26.178;2023-06-22T07:17:52;10.20;;;7.85;;
64225;SDS011;50545;56.064;26.178;2023-06-22T07:20:19;10.25;;;6.63;;
64225;SDS011;50545;56.064;26.178;2023-06-22T07:22:46;10.52;;;8.43;;
64225;SDS011;50545;56.064;26.178;2023-06-22T07:25:13;8.93;;;6.95;;
64225;SDS011;50545;56.064;26.178;2023-06-22T07:30:33;10.02;;;7.53;;
64225;SDS011;50545;56.064;26.178;2023-06-22T07:33:01;10.15;;;7.78;;
64225;SDS011;50545;56.064;26.178;2023-06-22T07:35:31;10.05;;;7.45;;
64225;SDS011;50545;56.064;26.178;2023-06-22T07:37:58;8.50;;;7.10;;
64225;SDS011;50545;56.064;26.178;2023-06-22T07:40:31;10.70;;;7.32;;
64225;SDS011;50545;56.064;26.178;2023-06-22T07:42:58;9.23;;;7.10;;
64225;SDS011;50545;56.064;26.178;2023-06-22T07:45:25;9.70;;;7.70;;
64225;SDS011;50545;56.064;26.178;2023-06-22T07:47:53;9.20;;;7.45;;
64225;SDS011;50545;56.064;26.178;2023-06-22T07:50:20;9.57;;;7.30;;
64225;SDS011;50545;56.064;26.178;2023-06-22T07:52:47;9.05;;;6.85;;
64225;SDS011;50545;56.064;26.178;2023-06-22T07:55:15;10.18;;;8.07;;
64225;SDS011;50545;56.064;26.178;2023-06-22T07:57:42;8.93;;;7.07;;
64225;SDS011;50545;56.064;26.178;2023-06-22T08:00:09;11.38;;;7.57;;
64225;SDS011;50545;56.064;26.178;2023-06-22T08:02:42;9.25;;;6.97;;
64225;SDS011;50545;56.064;26.178;2023-06-22T08:05:11;11.02;;;7.35;;
64225;SDS011;50545;56.064;26.178;2023-06-22T08:07:59;9.50;;;7.43;;
64225;SDS011;50545;56.064;26.178;2023-06-22T08:10:26;10.20;;;7.30;;
64225;SDS011;50545;56.064;26.178;2023-06-22T08:12:53;8.85;;;7.18;;
64225;SDS011;50545;56.064;26.178;2023-06-22T08:15:20;9.75;;;6.93;;
64225;SDS011;50545;56.064;26.178;2023-06-22T08:17:48;10.25;;;7.60;;
64225;SDS011;50545;56.064;26.178;2023-06-22T08:20:16;10.75;;;7.65;;
64225;SDS011;50545;56.064;26.178;2023-06-22T08:22:43;10.77;;;7.68;;
64225;SDS011;50545;56.064;26.178;2023-06-22T08:25:10;10.05;;;7.32;;
64225;SDS011;50545;56.064;26.178;2023-06-22T08:27:39;10.52;;;8.18;;
64225;SDS011;50545;56.064;26.178;2023-06-22T08:30:07;9.63;;;7.90;;
64225;SDS011;50545;56.064;26.178;2023-06-22T08:32:37;14.25;;;10.23;;
64225;SDS011;50545;56.064;26.178;2023-06-22T08:35:04;9.35;;;7.70;;
64225;SDS011;50545;56.064;26.178;2023-06-22T08:37:34;10.85;;;8.52;;
64225;SDS011;50545;56.064;26.178;2023-06-22T08:40:03;10.80;;;8.75;;
64225;SDS011;50545;56.064;26.178;2023-06-22T08:42:32;15.35;;;10.35;;
64225;SDS011;50545;56.064;26.178;2023-06-22T08:44:59;10.90;;;8.73;;
64225;SDS011;50545;56.064;26.178;2023-06-22T08:47:27;12.13;;;8.90;;
64225;SDS011;50545;56.064;26.178;2023-06-22T08:49:55;9.75;;;7.55;;
64225;SDS011;50545;56.064;26.178;2023-06-22T08:52:22;11.93;;;9.05;;
64225;SDS011;50545;56.064;26.178;2023-06-22T08:54:50;10.10;;;8.05;;
64225;SDS011;50545;56.064;26.178;2023-06-22T08:57:18;11.82;;;10.10;;
64225;SDS011;50545;56.064;26.178;2023-06-22T08:59:45;11.27;;;8.10;;
64225;SDS011;50545;56.064;26.178;2023-06-22T09:02:12;11.60;;;9.35;;
64225;SDS011;50545;56.064;26.178;2023-06-22T09:04:39;10.52;;;8.65;;
64225;SDS011;50545;56.064;26.178;2023-06-22T09:07:08;11.77;;;8.82;;
64225;SDS011;50545;56.064;26.178;2023-06-22T09:09:35;10.30;;;8.27;;
64225;SDS011;50545;56.064;26.178;2023-06-22T09:12:03;11.23;;;7.93;;
64225;SDS011;50545;56.064;26.178;2023-06-22T09:14:31;9.38;;;7.53;;
64225;SDS011;50545;56.064;26.178;2023-06-22T09:16:58;9.63;;;7.05;;
64225;SDS011;50545;56.064;26.178;2023-06-22T09:19:25;8.93;;;6.82;;
64225;SDS011;50545;56.064;26.178;2023-06-22T09:21:53;10.18;;;6.45;;
64225;SDS011;50545;56.064;26.178;2023-06-22T09:24:20;9.57;;;7.47;;
64225;SDS011;50545;56.064;26.178;2023-06-22T09:26:47;7.82;;;6.20;;
64225;SDS011;50545;56.064;26.178;2023-06-22T09:29:14;8.13;;;6.05;;
64225;SDS011;50545;56.064;26.178;2023-06-22T09:31:41;9.43;;;7.43;;
64225;SDS011;50545;56.064;26.178;2023-06-22T09:34:09;9.40;;;6.97;;
64225;SDS011;50545;56.064;26.178;2023-06-22T09:36:36;10.23;;;7.55;;
64225;SDS011;50545;56.064;26.178;2023-06-22T09:39:06;10.05;;;6.45;;
64225;SDS011;50545;56.064;26.178;2023-06-22T09:41:33;17.50;;;6.97;;
64225;SDS011;50545;56.064;26.178;2023-06-22T09:44:00;7.65;;;5.75;;
64225;SDS011;50545;56.064;26.178;2023-06-22T09:46:27;7.07;;;5.57;;
64225;SDS011;50545;56.064;26.178;2023-06-22T09:48:55;8.43;;;5.70;;
64225;SDS011;50545;56.064;26.178;2023-06-22T09:51:22;7.70;;;5.70;;
64225;SDS011;50545;56.064;26.178;2023-06-22T09:53:50;8.48;;;6.18;;
64225;SDS011;50545;56.064;26.178;2023-06-22T09:56:18;9.38;;;5.72;;
64225;SDS011;50545;56.064;26.178;2023-06-22T09:58:46;9.13;;;6.15;;
64225;SDS011;50545;56.064;26.178;2023-06-22T10:01:13;8.98;;;6.55;;
64225;SDS011;50545;56.064;26.178;2023-06-22T10:03:41;8.43;;;6.30;;
64225;SDS011;50545;56.064;26.178;2023-06-22T10:06:09;8.68;;;6.68;;
64225;SDS011;50545;56.064;26.178;2023-06-22T10:08:36;7.82;;;6.35;;
64225;SDS011;50545;56.064;26.178;2023-06-22T10:11:03;9.35;;;7.13;;
64225;SDS011;50545;56.064;26.178;2023-06-22T10:13:30;10.20;;;7.10;;
64225;SDS011;50545;56.064;26.178;2023-06-22T10:15:58;8.02;;;6.40;;
64225;SDS011;50545;56.064;26.178;2023-06-22T10:18:25;10.70;;;6.80;;
64225;SDS011;50545;56.064;26.178;2023-06-22T10:20:52;9.23;;;7.20;;
64225;SDS011;50545;56.064;26.178;2023-06-22T10:23:19;8.00;;;6.47;;
64225;SDS011;50545;56.064;26.178;2023-06-22T10:25:47;9.85;;;6.88;;
64225;SDS011;50545;56.064;26.178;2023-06-22T10:28:14;10.52;;;7.75;;
64225;SDS011;50545;56.064;26.178;2023-06-22T10:30:42;9.27;;;7.35;;
64225;SDS011;50545;56.064;26.178;2023-06-22T10:33:10;10.25;;;7.18;;
64225;SDS011;50545;56.064;26.178;2023-06-22T10:35:38;11.10;;;8.13;;
64225;SDS011;50545;56.064;26.178;2023-06-22T10:38:05;9.32;;;7.20;;
64225;SDS011;50545;56.064;26.178;2023-06-22T10:40:33;10.07;;;7.30;;
64225;SDS011;50545;56.064;26.178;2023-06-22T10:43:00;9.93;;;7.47;;
64225;SDS011;50545;56.064;26.178;2023-06-22T10:45:28;9.95;;;7.53;;
64225;SDS011;50545;56.064;26.178;2023-06-22T10:47:56;9.75;;;7.28;;
64225;SDS011;50545;56.064;26.178;2023-06-22T10:50:23;9.70;;;7.40;;
64225;SDS011;50545;56.064;26.178;2023-06-22T10:52:51;10.82;;;7.75;;
64225;SDS011;50545;56.064;26.178;2023-06-22T10:55:22;9.38;;;7.85;;
64225;SDS011;50545;56.064;26.178;2023-06-22T10:57:49;8.82;;;7.50;;
64225;SDS011;50545;56.064;26.178;2023-06-22T11:00:17;9.23;;;7.25;;
64225;SDS011;50545;56.064;26.178;2023-06-22T11:02:44;10.65;;;7.95;;
64225;SDS011;50545;56.064;26.178;2023-06-22T11:05:11;10.35;;;7.50;;
64225;SDS011;50545;56.064;26.178;2023-06-22T11:07:42;10.02;;;7.55;;
64225;SDS011;50545;56.064;26.178;2023-06-22T11:10:12;10.45;;;8.05;;
64225;SDS011;50545;56.064;26.178;2023-06-22T11:12:39;9.82;;;7.45;;
64225;SDS011;50545;56.064;26.178;2023-06-22T11:15:07;10.93;;;8.68;;
64225;SDS011;50545;56.064;26.178;2023-06-22T11:17:35;10.38;;;8.32;;
64225;SDS011;50545;56.064;26.178;2023-06-22T11:20:02;10.30;;;7.93;;
64225;SDS011;50545;56.064;26.178;2023-06-22T11:22:38;10.40;;;7.75;;
64225;SDS011;50545;56.064;26.178;2023-06-22T11:25:06;11.25;;;8.40;;
64225;SDS011;50545;56.064;26.178;2023-06-22T11:27:34;11.43;;;8.40;;
64225;SDS011;50545;56.064;26.178;2023-06-22T11:30:02;11.38;;;8.73;;
64225;SDS011;50545;56.064;26.178;2023-06-22T11:32:29;10.25;;;8.57;;
64225;SDS011;50545;56.064;26.178;2023-06-22T11:34:57;8.02;;;6.18;;
64225;SDS011;50545;56.064;26.178;2023-06-22T11:37:24;12.30;;;8.57;;
64225;SDS011;50545;56.064;26.178;2023-06-22T11:39:51;10.63;;;8.55;;
64225;SDS011;50545;56.064;26.178;2023-06-22T11:42:32;11.07;;;8.93;;
64225;SDS011;50545;56.064;26.178;2023-06-22T11:44:59;11.52;;;9.27;;
64225;SDS011;50545;56.064;26.178;2023-06-22T11:47:26;13.90;;;10.50;;
64225;SDS011;50545;56.064;26.178;2023-06-22T11:49:54;10.55;;;8.40;;
64225;SDS011;50545;56.064;26.178;2023-06-22T11:52:21;11.68;;;9.90;;
64225;SDS011;50545;56.064;26.178;2023-06-22T11:54:48;10.60;;;7.85;;
64225;SDS011;50545;56.064;26.178;2023-06-22T11:57:15;12.98;;;8.45;;
64225;SDS011;50545;56.064;26.178;2023-06-22T11:59:42;12.90;;;9.55;;
64225;SDS011;50545;56.064;26.178;2023-06-22T12:02:10;11.18;;;8.55;;
64225;SDS011;50545;56.064;26.178;2023-06-22T12:04:37;10.82;;;8.35;;
64225;SDS011;50545;56.064;26.178;2023-06-22T12:07:04;12.18;;;9.32;;
64225;SDS011;50545;56.064;26.178;2023-06-22T12:09:32;12.93;;;10.68;;
64225;SDS011;50545;56.064;26.178;2023-06-22T12:11:59;10.63;;;7.90;;
64225;SDS011;50545;56.064;26.178;2023-06-22T12:14:27;12.73;;;8.95;;
64225;SDS011;50545;56.064;26.178;2023-06-22T12:16:57;11.83;;;9.60;;
64225;SDS011;50545;56.064;26.178;2023-06-22T12:19:24;11.32;;;8.07;;
64225;SDS011;50545;56.064;26.178;2023-06-22T12:21:52;10.23;;;7.95;;
64225;SDS011;50545;56.064;26.178;2023-06-22T12:24:19;12.02;;;8.98;;
64225;SDS011;50545;56.064;26.178;2023-06-22T12:26:47;10.65;;;7.50;;
64225;SDS011;50545;56.064;26.178;2023-06-22T12:29:14;13.13;;;8.10;;
64225;SDS011;50545;56.064;26.178;2023-06-22T12:31:41;11.20;;;8.48;;
64225;SDS011;50545;56.064;26.178;2023-06-22T12:34:09;10.63;;;8.23;;
64225;SDS011;50545;56.064;26.178;2023-06-22T12:36:36;12.23;;;9.85;;
64225;SDS011;50545;56.064;26.178;2023-06-22T12:39:03;13.00;;;9.18;;
64225;SDS011;50545;56.064;26.178;2023-06-22T12:41:30;11.07;;;8.80;;
64225;SDS011;50545;56.064;26.178;2023-06-22T12:43:57;11.18;;;9.10;;
64225;SDS011;50545;56.064;26.178;2023-06-22T12:46:25;10.63;;;8.32;;
64225;SDS011;50545;56.064;26.178;2023-06-22T12:48:52;9.85;;;7.85;;
64225;SDS011;50545;56.064;26.178;2023-06-22T12:51:22;11.60;;;7.75;;
64225;SDS011;50545;56.064;26.178;2023-06-22T12:53:49;11.30;;;8.95;;
64225;SDS011;50545;56.064;26.178;2023-06-22T12:56:17;11.63;;;9.05;;
64225;SDS011;50545;56.064;26.178;2023-06-22T12:58:44;11.95;;;8.40;;
64225;SDS011;50545;56.064;26.178;2023-06-22T13:01:11;11.70;;;8.85;;
64225;SDS011;50545;56.064;26.178;2023-06-22T13:03:38;12.25;;;9.48;;
64225;SDS011;50545;56.064;26.178;2023-06-22T13:06:06;10.82;;;8.93;;
64225;SDS011;50545;56.064;26.178;2023-06-22T13:08:33;12.02;;;9.95;;
64225;SDS011;50545;56.064;26.178;2023-06-22T13:11:20;12.43;;;9.90;;
64225;SDS011;50545;56.064;26.178;2023-06-22T13:13:48;10.73;;;8.63;;
64225;SDS011;50545;56.064;26.178;2023-06-22T13:16:15;10.45;;;8.57;;
64225;SDS011;50545;56.064;26.178;2023-06-22T13:18:42;11.60;;;8.82;;
64225;SDS011;50545;56.064;26.178;2023-06-22T13:21:09;11.80;;;9.35;;
64225;SDS011;50545;56.064;26.178;2023-06-22T13:23:37;13.02;;;11.63;;
64225;SDS011;50545;56.064;26.178;2023-06-22T13:26:04;11.75;;;9.00;;
64225;SDS011;50545;56.064;26.178;2023-06-22T13:28:31;11.90;;;9.30;;
64225;SDS011;50545;56.064;26.178;2023-06-22T13:30:58;12.13;;;9.27;;
64225;SDS011;50545;56.064;26.178;2023-06-22T13:33:25;12.00;;;9.75;;
64225;SDS011;50545;56.064;26.178;2023-06-22T13:35:52;12.73;;;9.20;;
64225;SDS011;50545;56.064;26.178;2023-06-22T13:38:20;11.93;;;8.80;;
64225;SDS011;50545;56.064;26.178;2023-06-22T13:40:47;12.95;;;9.82;;
64225;SDS011;50545;56.064;26.178;2023-06-22T13:43:15;12.73;;;10.50;;
64225;SDS011;50545;56.064;26.178;2023-06-22T13:45:43;11.60;;;9.35;;
64225;SDS011;50545;56.064;26.178;2023-06-22T13:48:10;14.20;;;11.35;;
64225;SDS011;50545;56.064;26.178;2023-06-22T13:50:37;12.45;;;10.40;;
64225;SDS011;50545;56.064;26.178;2023-06-22T13:53:04;13.10;;;10.95;;
64225;SDS011;50545;56.064;26.178;2023-06-22T13:55:31;12.43;;;10.00;;
64225;SDS011;50545;56.064;26.178;2023-06-22T13:57:59;12.02;;;10.00;;
64225;SDS011;50545;56.064;26.178;2023-06-22T14:00:26;13.70;;;11.68;;
64225;SDS011;50545;56.064;26.178;2023-06-22T14:02:55;13.00;;;10.15;;
64225;SDS011;50545;56.064;26.178;2023-06-22T14:05:22;12.77;;;11.18;;
64225;SDS011;50545;56.064;26.178;2023-06-22T14:07:49;12.13;;;9.18;;
64225;SDS011;50545;56.064;26.178;2023-06-22T14:10:16;12.07;;;10.05;;
64225;SDS011;50545;56.064;26.178;2023-06-22T14:12:43;12.88;;;10.40;;
64225;SDS011;50545;56.064;26.178;2023-06-22T14:15:11;10.85;;;9.13;;
64225;SDS011;50545;56.064;26.178;2023-06-22T14:17:38;11.93;;;9.32;;
64225;SDS011;50545;56.064;26.178;2023-06-22T14:20:05;12.57;;;10.43;;
64225;SDS011;50545;56.064;26.178;2023-06-22T14:22:34;13.82;;;10.55;;
64225;SDS011;50545;56.064;26.178;2023-06-22T14:25:02;13.15;;;11.63;;
64225;SDS011;50545;56.064;26.178;2023-06-22T14:27:31;12.98;;;8.90;;
64225;SDS011;50545;56.064;26.178;2023-06-22T14:29:58;11.50;;;8.98;;
64225;SDS011;50545;56.064;26.178;2023-06-22T14:32:27;14.13;;;10.38;;
64225;SDS011;50545;56.064;26.178;2023-06-22T14:34:56;10.63;;;8.40;;
64225;SDS011;50545;56.064;26.178;2023-06-22T14:37:23;12.20;;;9.60;;
64225;SDS011;50545;56.064;26.178;2023-06-22T14:39:50;13.65;;;11.07;;
64225;SDS011;50545;56.064;26.178;2023-06-22T14:42:18;10.73;;;9.20;;
64225;SDS011;50545;56.064;26.178;2023-06-22T14:44:45;12.18;;;8.77;;